Map

Track Data

SID SEASON NUMBER BASIN SUBBASIN NAME ISO_TIME NATURE LAT LON WMO_WIND WMO_PRES WMO_AGENCY TRACK_TYPE DIST2LAND LANDFALL IFLAG USA_AGENCY USA_ATCF_ID USA_LAT USA_LON USA_RECORD USA_STATUS USA_WIND USA_PRES USA_SSHS USA_R34_NE USA_R34_SE USA_R34_SW USA_R34_NW USA_R50_NE USA_R50_SE USA_R50_SW USA_R50_NW USA_R64_NE USA_R64_SE USA_R64_SW USA_R64_NW USA_POCI USA_ROCI USA_RMW USA_EYE TOKYO_LAT TOKYO_LON TOKYO_GRADE TOKYO_WIND TOKYO_PRES TOKYO_R50_DIR TOKYO_R50_LONG TOKYO_R50_SHORT TOKYO_R30_DIR TOKYO_R30_LONG TOKYO_R30_SHORT TOKYO_LAND CMA_LAT CMA_LON CMA_CAT CMA_WIND CMA_PRES HKO_LAT HKO_LON HKO_CAT HKO_WIND HKO_PRES NEWDELHI_LAT NEWDELHI_LON NEWDELHI_GRADE NEWDELHI_WIND NEWDELHI_PRES NEWDELHI_CI NEWDELHI_DP NEWDELHI_POCI REUNION_LAT REUNION_LON REUNION_TYPE REUNION_WIND REUNION_PRES REUNION_TNUM REUNION_CI REUNION_RMW REUNION_R34_NE REUNION_R34_SE REUNION_R34_SW REUNION_R34_NW REUNION_R50_NE REUNION_R50_SE REUNION_R50_SW REUNION_R50_NW REUNION_R64_NE REUNION_R64_SE REUNION_R64_SW REUNION_R64_NW BOM_LAT BOM_LON BOM_TYPE BOM_WIND BOM_PRES BOM_TNUM BOM_CI BOM_RMW BOM_R34_NE BOM_R34_SE BOM_R34_SW BOM_R34_NW BOM_R50_NE BOM_R50_SE BOM_R50_SW BOM_R50_NW BOM_R64_NE BOM_R64_SE BOM_R64_SW BOM_R64_NW BOM_ROCI BOM_POCI BOM_EYE BOM_POS_METHOD BOM_PRES_METHOD NADI_LAT NADI_LON NADI_CAT NADI_WIND NADI_PRES WELLINGTON_LAT WELLINGTON_LON WELLINGTON_WIND WELLINGTON_PRES DS824_LAT DS824_LON DS824_STAGE DS824_WIND DS824_PRES TD9636_LAT TD9636_LON TD9636_STAGE TD9636_WIND TD9636_PRES TD9635_LAT TD9635_LON TD9635_WIND TD9635_PRES TD9635_ROCI NEUMANN_LAT NEUMANN_LON NEUMANN_CLASS NEUMANN_WIND NEUMANN_PRES MLC_LAT MLC_LON MLC_CLASS MLC_WIND MLC_PRES USA_GUST BOM_GUST BOM_GUST_PER REUNION_GUST REUNION_GUST_PER USA_SEAHGT USA_SEARAD_NE USA_SEARAD_SE USA_SEARAD_SW USA_SEARAD_NW STORM_SPEED STORM_DIR
1988006S05182 1988 4 SP MM ANNE 1988-01-05 12:00:00 NR -4.90000 182.400 30 997 wellington main 1097 1093 ________O_____ -1 -4.90000 -177.600 30 997 6 251
1988006S05182 1988 4 SP MM ANNE 1988-01-05 15:00:00 NR -5.00002 182.103 main 1104 1100 ________P_____ -1 -5.00002 -177.897 30 997 6 252
1988006S05182 1988 4 SP MM ANNE 1988-01-05 18:00:00 NR -5.10000 181.800 30 997 wellington main 1111 1108 ________O_____ -1 -5.10000 -178.200 30 997 6 252
1988006S05182 1988 4 SP MM ANNE 1988-01-05 21:00:00 NR -5.20000 181.492 main 1120 1120 ________P_____ -1 -5.20000 -178.508 30 997 7 318
1988006S05182 1988 4 SP MM ANNE 1988-01-06 00:00:00 TS -4.57143 181.329 30 997 wellington main 1188 1188 O_______O_O_O_ jtwc_sh SH071988 -3.60000 -178.500 25 -1 -5.30000 -178.800 30 997 -3.60000 -178.500 1 25 -3.60000 -178.500 TC 25 9 341
1988006S05182 1988 4 SP MM ANNE 1988-01-06 03:00:00 TS -4.34674 181.195 main 1223 1223 P_______P_P_P_ SH071988 -3.65753 -178.667 25 -1 -5.39998 -179.058 30 997 -3.61866 -178.577 1 25 -3.65753 -178.667 TC 25 4 322
1988006S05182 1988 4 SP MM ANNE 1988-01-06 06:00:00 TS -4.24228 181.073 30 997 wellington main 1238 1238 O_______O_P_O_ jtwc_sh SH071988 -3.70000 -178.800 25 -1 -5.50000 -179.300 30 997 -3.64987 -178.683 1 25 -3.70000 -178.800 TC 25 3 302
1988006S05182 1988 4 SP MM ANNE 1988-01-06 09:00:00 TS -4.19214 180.948 main 1250 1247 P_______P_P_P_ SH071988 -3.72745 -178.898 25 -1 -5.60751 -179.565 30 997 -3.70615 -178.847 1 25 -3.72745 -178.898 TC 25 3 265
1988006S05182 1988 4 SP MM ANNE 1988-01-06 12:00:00 TS -4.27500 180.725 30 997 wellington main 1253 1253 O_______O_O_O_ jtwc_sh SH071988 -3.80000 -179.100 25 -1 -5.70000 -179.800 30 997 -3.80000 -179.100 1 25 -3.80000 -179.100 TC 25 6 249
1988006S05182 1988 4 SP MM ANNE 1988-01-06 15:00:00 TS -4.41147 180.365 main 1263 1261 P_______P_P_P_ SH071988 -3.97758 -179.570 25 -1 -5.74996 -179.943 30 997 -3.94076 -179.458 1 25 -3.97758 -179.570 TC 25 8 248
1988006S05182 1988 4 SP MM ANNE 1988-01-06 18:00:00 TS -4.58130 179.952 30 997 wellington main 1272 1272 O_______O_P_O_ jtwc_sh SH071988 -4.20000 179.900 25 -1 -5.80000 179.900 30 997 -4.12520 -179.890 1 25 -4.20000 179.900 TC 25 9 246
1988006S05182 1988 4 SP MM ANNE 1988-01-06 21:00:00 TS -4.75423 179.579 main 1276 1266 P_______P_P_P_ SH071988 -4.38495 179.527 25 -1 -5.90003 179.615 30 997 -4.34701 179.648 1 25 -4.38495 179.527 TC 25 8 243
1988006S05182 1988 4 SP MM ANNE 1988-01-07 00:00:00 TS -4.95000 179.225 30 997 wellington main 1267 1235 O_______O_O_O_ jtwc_sh SH071988 -4.60000 179.200 25 -1 -6.00000 179.300 30 997 -4.60000 179.200 1 25 -4.60000 179.200 TC 25 8 238
1988006S05182 1988 4 SP MM ANNE 1988-01-07 03:00:00 TS -5.17478 178.899 main 1235 1215 P_______P_P_P_ SH071988 -4.88498 178.850 27 -1 -6.04997 179.050 32 996 -4.87920 178.845 1 27 -4.88498 178.850 TC 27 8 234
1988006S05182 1988 4 SP MM ANNE 1988-01-07 06:00:00 TS -5.42119 178.577 35 995 wellington main 1216 1187 O_______O_P_O_ jtwc_sh SH071988 -5.20000 178.500 30 -1 -6.10000 178.800 35 995 -5.18474 178.507 1 30 -5.20000 178.500 TC 30 8 232
1988006S05182 1988 4 SP MM ANNE 1988-01-07 09:00:00 TS -5.67446 178.251 main 1187 1170 P_______P_P_P_ SH071988 -5.50746 178.157 32 -1 -6.18497 178.522 37 992 -5.49792 178.166 1 32 -5.50746 178.157 TC 32 8 233
1988006S05182 1988 4 SP MM ANNE 1988-01-07 12:00:00 TS -5.92500 177.900 40 990 wellington main 1171 1154 O_______O_O_O_ jtwc_sh SH071988 -5.80000 177.800 35 0 -6.30000 178.200 40 990 -5.80000 177.800 2 35 -5.80000 177.800 TC 35 9 237
1988006S05182 1988 4 SP MM ANNE 1988-01-07 15:00:00 TS -6.15458 177.512 main 1147 1136 P_______P_P_P_ SH071988 -6.05745 177.422 35 0 -6.43498 177.822 40 990 -6.06843 177.379 2 35 -6.05745 177.422 TC 35 9 241
1988006S05182 1988 4 SP MM ANNE 1988-01-07 18:00:00 TS -6.38062 177.082 40 990 wellington main 1136 1123 O_______O_P_O_ jtwc_sh SH071988 -6.30000 177.000 35 0 -6.60000 177.400 40 990 -6.32248 176.930 2 35 -6.30000 177.000 TC 35 10 243
1988006S05182 1988 4 SP MM ANNE 1988-01-07 21:00:00 TS -6.61629 176.619 main 1130 1119 P_______P_P_P_ SH071988 -6.55747 176.522 35 0 -6.78496 176.965 42 988 -6.56528 176.466 2 35 -6.55747 176.522 TC 35 11 244
1988006S05182 1988 4 SP MM ANNE 1988-01-08 00:00:00 TS -6.85000 176.125 45 987 wellington main 1126 1112 O_______O_O_O_ jtwc_sh SH071988 -6.80000 176.000 35 0 -7.00000 176.500 45 987 -6.80000 176.000 2 35 -6.80000 176.000 TC 35 11 246
1988006S05182 1988 4 SP MM ANNE 1988-01-08 03:00:00 TS -7.06651 175.594 main 1114 1112 P_______P_P_P_ SH071988 -7.00005 175.427 37 0 -7.25002 175.993 47 986 -7.01594 175.530 2 37 -7.00005 175.427 TC 37 11 247
1988006S05182 1988 4 SP MM ANNE 1988-01-08 06:00:00 TS -7.28188 175.091 50 985 wellington main 1114 1105 O_______O_P_O_ jtwc_sh SH071988 -7.20000 174.900 40 0 -7.50000 175.500 50 985 -7.22753 175.062 2 40 -7.20000 174.900 TC 40 10 244
1988006S05182 1988 4 SP MM ANNE 1988-01-08 09:00:00 TS -7.50876 174.685 main 1109 1097 P_______P_P_P_ SH071988 -7.43489 174.520 42 0 -7.71492 175.085 50 985 -7.45034 174.614 2 42 -7.43489 174.520 TC 42 9 238
1988006S05182 1988 4 SP MM ANNE 1988-01-08 12:00:00 TS -7.75000 174.325 50 985 wellington main 1106 1086 O_______O_O_O_ jtwc_sh SH071988 -7.70000 174.200 45 0 -7.90000 174.700 50 985 -7.70000 174.200 2 45 -7.70000 174.200 TC 45 9 235
1988006S05182 1988 4 SP MM ANNE 1988-01-08 15:00:00 TS -8.00325 173.961 main 1086 1031 P_______P_P_P_ SH071988 -7.98499 173.842 45 0 -8.03496 174.300 52 982 -8.00807 173.859 2 46 -7.98499 173.842 TC 45 9 233
1988006S05182 1988 4 SP MM ANNE 1988-01-08 18:00:00 TS -8.28550 173.612 55 980 wellington main 1031 984 O_______O_P_O_ jtwc_sh SH071988 -8.30000 173.500 45 0 -8.20000 173.900 55 980 -8.34198 173.550 2 47 -8.30000 173.500 TC 45 9 227
1988006S05182 1988 4 SP MM ANNE 1988-01-08 21:00:00 TS -8.61428 173.296 main 984 937 P_______P_P_P_ SH071988 -8.64240 173.215 47 0 -8.49241 173.515 55 980 -8.67993 173.240 2 48 -8.64240 173.215 TC 47 9 225
1988006S05182 1988 4 SP MM ANNE 1988-01-09 00:00:00 TS -8.95000 172.950 55 980 wellington main 937 875 O_______O_O_O_ jtwc_sh SH071988 -9.00000 172.900 50 0 -8.80000 173.100 55 980 -9.00000 172.900 2 50 -9.00000 172.900 TC 50 10 230
1988006S05182 1988 4 SP MM ANNE 1988-01-09 03:00:00 TS -9.25383 172.512 main 867 821 P_______P_P_P_ SH071988 -9.38002 172.473 52 0 -9.00002 172.607 55 980 -9.25527 172.494 2 53 -9.38002 172.473 TC 52 11 238
1988006S05182 1988 4 SP MM ANNE 1988-01-09 06:00:00 TS -9.52310 172.038 55 980 wellington main 814 768 O_______O_P_O_ jtwc_sh SH071988 -9.70000 172.000 55 0 -9.20000 172.100 55 980 -9.49241 172.052 2 57 -9.70000 172.000 TC 55 10 242
1988006S05182 1988 4 SP MM ANNE 1988-01-09 09:00:00 TS -9.73700 171.589 main 768 724 P_______P_P_P_ SH071988 -9.86491 171.557 60 0 -9.48485 171.657 57 977 -9.73334 171.584 2 61 -9.86491 171.557 TC 60 10 245
1988006S05182 1988 4 SP MM ANNE 1988-01-09 12:00:00 TS -9.95000 171.125 60 975 wellington main 717 664 O_______O_O_O_ jtwc_sh SH071988 -10.0000 171.100 65 1 -9.80000 171.200 60 975 -10.0000 171.100 3 65 -10.0000 171.100 TC 65 11 244
1988006S05182 1988 4 SP MM ANNE 1988-01-09 15:00:00 TS -10.2020 170.622 main 658 599 P_______P_P_P_ SH071988 -10.2050 170.607 70 1 -10.0850 170.657 65 970 -10.3130 170.614 3 71 -10.2050 170.607 TC 70 12 241
1988006S05182 1988 4 SP MM ANNE 1988-01-09 18:00:00 TS -10.5137 170.104 70 965 wellington main 599 533 O_______O_P_O_ jtwc_sh SH071988 -10.5000 170.100 75 1 -10.4000 170.100 70 965 -10.6549 170.115 3 77 -10.5000 170.100 TC 75 12 235
1988006S05182 1988 4 SP MM ANNE 1988-01-09 21:00:00 TS -10.9185 169.595 main 533 467 P_______P_P_P_ SH071988 -10.9350 169.593 82 1 -10.7849 169.585 72 962 -11.0192 169.608 3 83 -10.9350 169.593 TC 82 13 230
1988006S05182 1988 4 SP MM ANNE 1988-01-10 00:00:00 TS -11.3500 169.100 75 960 wellington main 467 405 O_______O_O_O_ jtwc_sh SH071988 -11.4000 169.100 90 2 -11.2000 169.100 75 960 -11.4000 169.100 4 90 -11.4000 169.100 TC 90 12 230
1988006S05182 1988 4 SP MM ANNE 1988-01-10 03:00:00 TS -11.7134 168.638 main 399 338 P_______P_P_P_ SH071988 -11.7498 168.657 95 2 -11.5849 168.650 77 957 -11.7693 168.587 4 96 -11.7498 168.657 TC 97 12 231
1988006S05182 1988 4 SP MM ANNE 1988-01-10 06:00:00 TS -12.0887 168.169 80 955 wellington main 338 273 O_______O_P_O_ jtwc_sh SH071988 -12.1000 168.200 100 3 -12.0000 168.200 80 955 -12.1549 168.077 4 102 -12.1000 168.200 TC 105 13 230
1988006S05182 1988 4 SP MM ANNE 1988-01-10 09:00:00 TS -12.5314 167.654 main 273 201 P_______P_P_P_ SH071988 -12.5350 167.665 107 3 -12.4925 167.707 85 947 -12.5631 167.578 4 108 -12.5350 167.665 TC 110 14 228
1988006S05182 1988 4 SP MM ANNE 1988-01-10 12:00:00 TS -13.0000 167.125 90 940 wellington main 197 145 O_______O_O_O_ jtwc_sh SH071988 -13.0000 167.100 115 4 -13.0000 167.200 90 940 -13.0000 167.100 4 115 -13.0000 167.100 TC 115 14 229
1988006S05182 1988 4 SP MM ANNE 1988-01-10 15:00:00 TS -13.4442 166.588 main 145 104 P_______P_P_P_ SH071988 -13.4351 166.512 122 4 -13.4274 166.700 92 935 -13.4792 166.629 4 121 -13.4351 166.512 TC 122 14 227
1988006S05182 1988 4 SP MM ANNE 1988-01-10 18:00:00 TS -13.9212 166.096 95 930 wellington main 104 87 O_______O_P_O_ jtwc_sh SH071988 -13.9000 166.000 130 4 -13.9000 166.200 95 930 -13.9849 166.183 4 127 -13.9000 166.000 TC 130 14 220
1988006S05182 1988 4 SP MM ANNE 1988-01-10 21:00:00 TS -14.4888 165.689 main 92 92 P_______P_P_P_ SH071988 -14.4498 165.662 135 4 -14.5576 165.663 97 927 -14.4981 165.770 4 133 -14.4498 165.662 TC 135 13 213
1988006S05182 1988 4 SP MM ANNE 1988-01-11 00:00:00 TS -15.0500 165.350 100 925 wellington main 130 133 O_______O_O_O_ jtwc_sh SH071988 -15.0000 165.400 140 5 -15.2000 165.200 100 925 -15.0000 165.400 4 140 -15.0000 165.400 TC 140 12 212
1988006S05182 1988 4 SP MM ANNE 1988-01-11 03:00:00 TS -15.5070 165.033 main 171 171 P_______P_P_P_ SH071988 -15.4650 165.092 137 5 -15.6298 164.912 97 927 -15.4682 165.037 4 137 -15.4650 165.092 TC 137 11 213
1988006S05182 1988 4 SP MM ANNE 1988-01-11 06:00:00 TS -15.9306 164.756 95 930 wellington main 200 200 O_______O_P_O_ jtwc_sh SH071988 -15.9000 164.800 135 4 -16.0000 164.700 95 930 -15.9223 164.723 4 135 -15.9000 164.800 TC 135 10 211
1988006S05182 1988 4 SP MM ANNE 1988-01-11 09:00:00 TS -16.3807 164.479 main 250 250 P_______P_P_P_ SH071988 -16.3575 164.513 132 4 -16.4425 164.420 92 935 -16.3652 164.472 4 132 -16.3575 164.513 TC 132 10 207
1988006S05182 1988 4 SP MM ANNE 1988-01-11 12:00:00 TS -16.8250 164.275 90 940 wellington main 291 291 O_______O_O_O_ jtwc_sh SH071988 -16.8000 164.300 130 4 -16.9000 164.200 90 940 -16.8000 164.300 4 130 -16.8000 164.300 TC 130 9 199
1988006S05182 1988 4 SP MM ANNE 1988-01-11 15:00:00 TS -17.2483 164.173 main 324 291 P_______P_P_P_ SH071988 -17.1999 164.205 127 4 -17.3574 164.097 87 942 -17.2359 164.184 4 126 -17.1999 164.205 TC 127 9 187
1988006S05182 1988 4 SP MM ANNE 1988-01-11 18:00:00 TS -17.6661 164.162 85 945 wellington main 279 235 O_______O_P_O_ jtwc_sh SH071988 -17.6000 164.200 125 4 -17.8000 164.100 85 945 -17.6645 164.150 4 122 -17.6000 164.200 TC 125 9 178
1988006S05182 1988 4 SP MM ANNE 1988-01-11 21:00:00 TS -18.0927 164.200 main 235 191 P_______P_P_P_ SH071988 -18.0425 164.220 120 4 -18.2000 164.170 82 950 -18.0859 164.191 4 118 -18.0425 164.220 TC 120 9 171
1988006S05182 1988 4 SP MM ANNE 1988-01-12 00:00:00 TS -18.5250 164.300 80 955 wellington main 191 148 O_______O_O_O_ jtwc_sh SH071988 -18.5000 164.300 115 4 -18.6000 164.300 80 955 -18.5000 164.300 4 115 -18.5000 164.300 TC 115 9 166
1988006S05182 1988 4 SP MM ANNE 1988-01-12 03:00:00 TS -18.9737 164.429 main 137 101 P_______P_P_P_ SH071988 -18.9649 164.413 107 3 -19.0574 164.420 77 957 -18.9074 164.472 4 107 -18.9649 164.413 TC 107 9 161
1988006S05182 1988 4 SP MM ANNE 1988-01-12 06:00:00 TS -19.4020 164.626 75 960 wellington main 101 74 O_______O_P_O_ jtwc_sh SH071988 -19.4000 164.600 100 3 -19.5000 164.600 75 960 -19.3079 164.704 4 100 -19.4000 164.600 TC 100 9 151
1988006S05182 1988 4 SP MM ANNE 1988-01-12 09:00:00 TS -19.7693 164.906 main 69 68 P_______P_P_P_ SH071988 -19.7651 164.900 92 2 -19.8425 164.863 72 962 -19.7043 164.959 4 92 -19.7651 164.900 TC 92 9 143
1988006S05182 1988 4 SP MM ANNE 1988-01-12 12:00:00 TS -20.1250 165.200 70 965 wellington main 68 39 O_______O_O_O_ jtwc_sh SH071988 -20.1000 165.200 85 2 -20.2000 165.200 70 965 -20.1000 165.200 4 85 -20.1000 165.200 TC 85 9 146
1988006S05182 1988 4 SP MM ANNE 1988-01-12 15:00:00 TS -20.5051 165.425 main 39 23 P_______P_P_P_ SH071988 -20.4349 165.373 80 1 -20.6552 165.615 65 970 -20.4955 165.340 4 78 -20.4349 165.373 TC 80 9 154
1988006S05182 1988 4 SP MM ANNE 1988-01-12 18:00:00 TS -20.9230 165.616 60 975 wellington main 23 0 O_______O_P_O_ jtwc_sh SH071988 -20.8000 165.500 75 1 -21.2000 166.000 60 975 -20.8919 165.464 4 72 -20.8000 165.500 TC 75 10 160
1988006S05182 1988 4 SP MM ANNE 1988-01-12 21:00:00 TS -21.4086 165.779 main 0 0 P_______P_P_P_ SH071988 -21.2274 165.620 67 1 -21.8874 166.267 55 980 -21.2923 165.606 4 66 -21.2274 165.620 TC 67 10 162
1988006S05182 1988 4 SP MM ANNE 1988-01-13 00:00:00 TS -21.9000 165.950 50 985 wellington main 0 0 O_______O_O_O_ jtwc_sh SH071988 -21.7000 165.800 60 0 -22.5000 166.400 50 985 -21.7000 165.800 2 60 -21.7000 165.800 TC 60 10 159
1988006S05182 1988 4 SP MM ANNE 1988-01-13 03:00:00 TS -22.3382 166.165 main 15 15 P_______P_P_P_ SH071988 -22.2151 166.120 55 0 -22.8099 166.388 47 986 -22.1128 166.033 2 56 -22.2151 166.120 TC 55 9 153
1988006S05182 1988 4 SP MM ANNE 1988-01-13 06:00:00 TS -22.7333 166.407 45 987 wellington main 44 44 O_______O_P_O_ jtwc_sh SH071988 -22.7000 166.500 50 0 -23.0000 166.300 45 987 -22.5333 166.330 2 52 -22.7000 166.500 TC 50 9 149
1988006S05182 1988 4 SP MM ANNE 1988-01-13 09:00:00 TS -23.0760 166.651 main 78 78 P_______P_P_P_ SH071988 -23.0496 166.813 47 0 -23.2425 166.265 45 987 -22.9622 166.712 2 48 -23.0496 166.813 TC 47 9 144
1988006S05182 1988 4 SP MM ANNE 1988-01-13 12:00:00 TS -23.4250 166.950 45 987 wellington main 112 112 O_______O_O_O_ jtwc_sh SH071988 -23.4000 167.200 45 0 -23.5000 166.200 45 987 -23.4000 167.200 2 45 -23.4000 167.200 TC 45 10 141
1988006S05182 1988 4 SP MM ANNE 1988-01-13 15:00:00 TS -23.8557 167.333 main 172 172 P_______P_P_P_ SH071988 -23.8921 167.725 42 0 -23.7925 166.072 42 988 -23.8460 167.808 2 41 -23.8921 167.725 TC 42 12 138
1988006S05182 1988 4 SP MM ANNE 1988-01-13 18:00:00 TS -24.2993 167.804 40 990 wellington main 231 231 O_______O_P_O_ jtwc_sh SH071988 -24.4000 168.400 40 0 -24.1000 165.900 40 990 -24.2971 168.514 2 37 -24.4000 168.400 TC 40 13 132
1988006S05182 1988 4 SP MM ANNE 1988-01-13 21:00:00 TS -24.7024 168.354 main 299 299 P_______P_P_P_ SH071988 -24.8287 169.212 35 0 -24.4026 165.705 40 990 -24.7495 169.289 2 33 -24.8287 169.212 TC 35 13 127
1988006S05182 1988 4 SP MM ANNE 1988-01-14 00:00:00 TS -25.0750 168.950 40 990 wellington main 369 O_______O_O_O_ jtwc_sh SH071988 -25.2000 170.100 30 -1 -24.7000 165.500 40 990 -25.2000 170.100 1 30 -25.2000 170.100 TC 30 13 125

Digital Typhoon Data and Search

About IBTrACS Database

This database is a web-friendly format of International Best Track Archive for Climate Stewardship (IBTrACS), a global best track data archive curated by NOAA dating back to 1842.

Updated: 2021-10-08